createdAt,value
2022-09-11T00:00:51.791Z,1003.34
2022-09-11T00:01:51.779Z,1003.37
2022-09-11T00:02:51.774Z,1003.38
2022-09-11T00:03:51.756Z,1003.33
2022-09-11T00:04:51.743Z,1003.45
2022-09-11T00:05:51.743Z,1003.43
2022-09-11T00:06:51.730Z,1003.43
2022-09-11T00:07:51.715Z,1003.43
2022-09-11T00:08:51.710Z,1003.43
2022-09-11T00:09:51.695Z,1003.43
2022-09-11T00:10:51.691Z,1003.47
2022-09-11T00:11:51.667Z,1003.43
2022-09-11T00:12:51.660Z,1003.52
2022-09-11T00:13:51.648Z,1003.45
2022-09-11T00:14:51.640Z,1003.48
2022-09-11T00:15:51.640Z,1003.48
2022-09-11T00:16:51.621Z,1003.49
2022-09-11T00:17:51.619Z,1003.54
2022-09-11T00:18:51.593Z,1003.5
2022-09-11T00:19:51.588Z,1003.5
2022-09-11T00:20:51.573Z,1003.47
2022-09-11T00:21:51.572Z,1003.52
2022-09-11T00:22:51.558Z,1003.45
2022-09-11T00:23:51.537Z,1003.47
2022-09-11T00:24:51.527Z,1003.48
2022-09-11T00:25:51.524Z,1003.47
2022-09-11T00:26:51.509Z,1003.49
2022-09-11T00:27:51.496Z,1003.48
2022-09-11T00:28:51.489Z,1003.43
2022-09-11T00:29:51.477Z,1003.42
2022-09-11T00:30:51.467Z,1003.48
2022-09-11T00:31:51.464Z,1003.44
2022-09-11T00:32:51.452Z,1003.49
2022-09-11T00:33:51.431Z,1003.48
2022-09-11T00:34:51.427Z,1003.46
2022-09-11T00:35:51.412Z,1003.51
2022-09-11T00:36:51.402Z,1003.48
2022-09-11T00:37:51.389Z,1003.5
2022-09-11T00:38:51.385Z,1003.46
2022-09-11T00:39:51.367Z,1003.5
2022-09-11T00:40:51.363Z,1003.48
2022-09-11T00:41:51.354Z,1003.53
2022-09-11T00:42:51.344Z,1003.56
2022-09-11T00:43:51.328Z,1003.54
2022-09-11T00:44:51.329Z,1003.56
2022-09-11T00:45:51.307Z,1003.58
2022-09-11T00:46:51.298Z,1003.6
2022-09-11T00:47:51.284Z,1003.59
2022-09-11T00:48:51.273Z,1003.62
2022-09-11T00:49:51.271Z,1003.58
2022-09-11T00:50:51.269Z,1003.59
2022-09-11T00:51:51.244Z,1003.63
2022-09-11T00:52:51.249Z,1003.56
2022-09-11T00:53:51.222Z,1003.61
2022-09-11T00:54:51.210Z,1003.62
2022-09-11T00:55:51.201Z,1003.62
2022-09-11T00:56:51.192Z,1003.59
2022-09-11T00:57:51.173Z,1003.61
2022-09-11T00:58:51.168Z,1003.69
2022-09-11T00:59:51.156Z,1003.63
2022-09-11T01:00:51.146Z,1003.65
2022-09-11T01:01:51.159Z,1003.67
2022-09-11T01:02:51.127Z,1003.67
2022-09-11T01:03:51.116Z,1003.62
2022-09-11T01:04:51.099Z,1003.63
2022-09-11T01:05:51.091Z,1003.71
2022-09-11T01:06:51.082Z,1003.66
2022-09-11T01:07:51.073Z,1003.64
2022-09-11T01:08:51.054Z,1003.71
2022-09-11T01:09:51.047Z,1003.74
2022-09-11T01:10:51.041Z,1003.74
2022-09-11T01:11:51.039Z,1003.73
2022-09-11T01:12:51.029Z,1003.72
2022-09-11T01:13:51.002Z,1003.71
2022-09-11T01:14:50.998Z,1003.74
2022-09-11T01:15:51.008Z,1003.78
2022-09-11T01:16:50.972Z,1003.73
2022-09-11T01:17:50.963Z,1003.79
2022-09-11T01:18:50.953Z,1003.75
2022-09-11T01:19:50.941Z,1003.79
2022-09-11T01:20:50.934Z,1003.79
2022-09-11T01:21:50.925Z,1003.78
2022-09-11T01:22:50.914Z,1003.77
2022-09-11T01:23:50.898Z,1003.78
2022-09-11T01:24:50.887Z,1003.76
2022-09-11T01:25:50.880Z,1003.8
2022-09-11T01:26:50.861Z,1003.76
2022-09-11T01:27:50.859Z,1003.75
2022-09-11T01:28:50.843Z,1003.73
2022-09-11T01:29:50.837Z,1003.77
2022-09-11T01:30:50.835Z,1003.75
2022-09-11T01:31:50.813Z,1003.79
2022-09-11T01:32:50.806Z,1003.75
2022-09-11T01:33:50.789Z,1003.82
2022-09-11T01:34:50.784Z,1003.75
2022-09-11T01:35:50.772Z,1003.76
2022-09-11T01:36:50.767Z,1003.77
2022-09-11T01:37:50.751Z,1003.81
2022-09-11T01:38:50.737Z,1003.78
2022-09-11T01:39:50.738Z,1003.76
2022-09-11T01:40:50.717Z,1003.8
2022-09-11T01:41:50.722Z,1003.84
2022-09-11T01:42:50.709Z,1003.87
2022-09-11T01:43:50.684Z,1003.85
2022-09-11T01:44:50.676Z,1003.93
2022-09-11T01:45:50.666Z,1003.93
2022-09-11T01:46:50.654Z,1003.93
2022-09-11T01:47:50.642Z,1003.93
2022-09-11T01:48:50.645Z,1003.96
2022-09-11T01:49:50.616Z,1003.96
2022-09-11T01:50:50.612Z,1004
2022-09-11T01:51:50.598Z,1004.02
2022-09-11T01:52:50.587Z,1003.95
2022-09-11T01:53:50.580Z,1004
2022-09-11T01:54:50.573Z,1003.99
2022-09-11T01:55:50.564Z,1004.02
2022-09-11T01:56:50.546Z,1004
2022-09-11T01:57:50.535Z,1004.02
2022-09-11T01:58:50.539Z,1003.99
2022-09-11T01:59:50.518Z,1003.97
2022-09-11T02:00:50.537Z,1004.01
2022-09-11T02:01:50.511Z,1003.98
2022-09-11T02:02:50.499Z,1004.04
2022-09-11T02:03:50.505Z,1004.06
2022-09-11T02:04:50.463Z,1004.02
2022-09-11T02:05:50.453Z,1004.02
2022-09-11T02:06:50.438Z,1004.1
2022-09-11T02:07:50.427Z,1004.1
2022-09-11T02:08:50.418Z,1004.06
2022-09-11T02:09:50.406Z,1004.12
2022-09-11T02:10:50.394Z,1004.05
2022-09-11T02:11:50.384Z,1004.16
2022-09-11T02:12:50.378Z,1004.14
2022-09-11T02:13:50.375Z,1004.19
2022-09-11T02:14:50.356Z,1004.16
2022-09-11T02:15:50.352Z,1004.19
2022-09-11T02:16:50.345Z,1004.17
2022-09-11T02:17:50.317Z,1004.21
2022-09-11T02:18:50.315Z,1004.17
2022-09-11T02:19:50.301Z,1004.23
2022-09-11T02:20:50.295Z,1004.22
2022-09-11T02:21:50.279Z,1004.31
2022-09-11T02:22:50.282Z,1004.25
2022-09-11T02:23:50.255Z,1004.26
2022-09-11T02:24:50.252Z,1004.29
2022-09-11T02:25:50.237Z,1004.27
2022-09-11T02:26:50.226Z,1004.28
2022-09-11T02:27:50.213Z,1004.22
2022-09-11T02:28:50.210Z,1004.29
2022-09-11T02:29:50.189Z,1004.29
2022-09-11T02:30:50.181Z,1004.33
2022-09-11T02:31:50.176Z,1004.29
2022-09-11T02:32:50.170Z,1004.3
2022-09-11T02:33:50.150Z,1004.3
2022-09-11T02:34:50.140Z,1004.35
2022-09-11T02:35:50.132Z,1004.34
2022-09-11T02:36:50.115Z,1004.34
2022-09-11T02:37:50.111Z,1004.39
2022-09-11T02:38:50.102Z,1004.41
2022-09-11T02:39:50.093Z,1004.45
2022-09-11T02:40:50.076Z,1004.45
2022-09-11T02:41:50.093Z,1004.39
2022-09-11T02:42:50.063Z,1004.44
2022-09-11T02:43:50.056Z,1004.38
2022-09-11T02:44:50.034Z,1004.42
2022-09-11T02:45:50.020Z,1004.45
2022-09-11T02:46:50.013Z,1004.43
2022-09-11T02:47:50.023Z,1004.41
2022-09-11T02:48:49.989Z,1004.42
2022-09-11T02:49:49.975Z,1004.41
2022-09-11T02:50:49.976Z,1004.41
2022-09-11T02:51:49.967Z,1004.38
2022-09-11T02:52:49.946Z,1004.44
2022-09-11T02:53:49.932Z,1004.41
2022-09-11T02:54:49.927Z,1004.42
2022-09-11T02:55:49.912Z,1004.4
2022-09-11T02:56:49.915Z,1004.46
2022-09-11T02:57:49.898Z,1004.45
2022-09-11T02:58:49.884Z,1004.43
2022-09-11T02:59:49.872Z,1004.4
2022-09-11T03:00:49.863Z,1004.38
2022-09-11T03:01:49.851Z,1004.44
2022-09-11T03:02:49.851Z,1004.38
2022-09-11T03:03:49.833Z,1004.39
2022-09-11T03:04:49.813Z,1004.41
2022-09-11T03:05:49.808Z,1004.42
2022-09-11T03:06:49.802Z,1004.42
2022-09-11T03:07:49.788Z,1004.45
2022-09-11T03:08:49.776Z,1004.47
2022-09-11T03:09:49.788Z,1004.49
2022-09-11T03:10:49.755Z,1004.46
2022-09-11T03:11:49.745Z,1004.54
2022-09-11T03:12:49.728Z,1004.55
2022-09-11T03:13:49.726Z,1004.52
2022-09-11T03:14:49.725Z,1004.46
2022-09-11T03:15:49.714Z,1004.53
2022-09-11T03:16:49.688Z,1004.45
2022-09-11T03:17:49.671Z,1004.44
2022-09-11T03:18:49.666Z,1004.45
2022-09-11T03:19:49.658Z,1004.5
2022-09-11T03:20:49.643Z,1004.49
2022-09-11T03:21:49.627Z,1004.58
2022-09-11T03:22:49.628Z,1004.52
2022-09-11T03:23:49.608Z,1004.55
2022-09-11T03:24:49.599Z,1004.57
2022-09-11T03:25:49.591Z,1004.53
2022-09-11T03:26:49.577Z,1004.59
2022-09-11T03:27:49.568Z,1004.6
2022-09-11T03:28:49.549Z,1004.66
2022-09-11T03:29:49.544Z,1004.58
2022-09-11T03:30:49.536Z,1004.58
2022-09-11T03:31:49.533Z,1004.65
2022-09-11T03:32:49.512Z,1004.62
2022-09-11T03:33:49.507Z,1004.57
2022-09-11T03:34:49.495Z,1004.65
2022-09-11T03:35:49.484Z,1004.65
2022-09-11T03:36:49.472Z,1004.65
2022-09-11T03:37:49.468Z,1004.63
2022-09-11T03:38:49.442Z,1004.63
2022-09-11T03:39:49.431Z,1004.59
2022-09-11T03:40:49.421Z,1004.62
2022-09-11T03:41:49.413Z,1004.64
2022-09-11T03:42:49.403Z,1004.57
2022-09-11T03:43:49.400Z,1004.6
2022-09-11T03:44:49.386Z,1004.6
2022-09-11T03:45:49.372Z,1004.62
2022-09-11T03:46:49.362Z,1004.61
2022-09-11T03:47:49.350Z,1004.59
2022-09-11T03:48:49.339Z,1004.64
2022-09-11T03:49:49.331Z,1004.64
2022-09-11T03:50:49.312Z,1004.66
2022-09-11T03:51:49.307Z,1004.6
2022-09-11T03:52:49.298Z,1004.66
2022-09-11T03:53:49.285Z,1004.65
2022-09-11T03:54:49.270Z,1004.62
2022-09-11T03:55:49.256Z,1004.61
2022-09-11T03:56:49.241Z,1004.6
2022-09-11T03:57:49.230Z,1004.65
2022-09-11T03:58:49.220Z,1004.61
2022-09-11T03:59:49.216Z,1004.61
2022-09-11T04:00:49.203Z,1004.68
2022-09-11T04:01:49.190Z,1004.67
2022-09-11T04:02:49.174Z,1004.65
2022-09-11T04:03:49.172Z,1004.67
2022-09-11T04:04:49.160Z,1004.68
2022-09-11T04:05:49.148Z,1004.69
2022-09-11T04:06:49.139Z,1004.72
2022-09-11T04:07:49.123Z,1004.76
2022-09-11T04:08:49.108Z,1004.78
2022-09-11T04:09:49.101Z,1004.69
2022-09-11T04:10:49.112Z,1004.75
2022-09-11T04:11:49.086Z,1004.75
2022-09-11T04:12:49.072Z,1004.73
2022-09-11T04:13:49.094Z,1004.77
2022-09-11T04:14:49.052Z,1004.7
2022-09-11T04:15:49.059Z,1004.7
2022-09-11T04:16:49.023Z,1004.73
2022-09-11T04:17:49.028Z,1004.67
2022-09-11T04:18:49.019Z,1004.71
2022-09-11T04:19:48.992Z,1004.74
2022-09-11T04:20:48.993Z,1004.77
2022-09-11T04:21:49.007Z,1004.71
2022-09-11T04:22:48.961Z,1004.75
2022-09-11T04:23:48.961Z,1004.71
2022-09-11T04:24:48.940Z,1004.68
2022-09-11T04:25:48.922Z,1004.72
2022-09-11T04:26:48.917Z,1004.73
2022-09-11T04:27:48.901Z,1004.72
2022-09-11T04:28:48.885Z,1004.7
2022-09-11T04:29:48.880Z,1004.71
2022-09-11T04:30:48.863Z,1004.75
2022-09-11T04:31:48.860Z,1004.72
2022-09-11T04:32:48.857Z,1004.7
2022-09-11T04:33:48.828Z,1004.73
2022-09-11T04:34:48.822Z,1004.67
2022-09-11T04:35:48.807Z,1004.65
2022-09-11T04:36:48.802Z,1004.7
2022-09-11T04:37:48.791Z,1004.73
2022-09-11T04:38:48.776Z,1004.73
2022-09-11T04:39:48.768Z,1004.73
2022-09-11T04:40:48.759Z,1004.74
2022-09-11T04:41:48.748Z,1004.78
2022-09-11T04:42:48.736Z,1004.8
2022-09-11T04:43:48.721Z,1004.8
2022-09-11T04:44:48.713Z,1004.82
2022-09-11T04:45:48.703Z,1004.81
2022-09-11T04:46:48.695Z,1004.81
2022-09-11T04:47:48.676Z,1004.87
2022-09-11T04:48:48.665Z,1004.86
2022-09-11T04:49:48.655Z,1004.85
2022-09-11T04:50:48.649Z,1004.89
2022-09-11T04:51:48.664Z,1004.87
2022-09-11T04:52:48.632Z,1004.84
2022-09-11T04:53:48.619Z,1004.87
2022-09-11T04:54:48.598Z,1004.91
2022-09-11T04:55:48.595Z,1004.91
2022-09-11T04:56:48.590Z,1004.86
2022-09-11T04:57:48.572Z,1004.91
2022-09-11T04:58:48.559Z,1004.93
2022-09-11T04:59:48.542Z,1004.94
2022-09-11T05:00:48.539Z,1004.94
2022-09-11T05:01:48.529Z,1004.95
2022-09-11T05:02:48.520Z,1004.94
2022-09-11T05:03:48.502Z,1004.94
2022-09-11T05:04:48.523Z,1004.94
2022-09-11T05:05:48.478Z,1004.97
2022-09-11T05:06:48.468Z,1004.98
2022-09-11T05:07:48.466Z,1004.95
2022-09-11T05:08:48.444Z,1004.93
2022-09-11T05:09:48.433Z,1004.92
2022-09-11T05:10:48.423Z,1004.95
2022-09-11T05:11:48.411Z,1004.95
2022-09-11T05:12:48.402Z,1004.94
2022-09-11T05:13:48.397Z,1004.93
2022-09-11T05:14:48.379Z,1005.01
2022-09-11T05:15:48.367Z,1004.95
2022-09-11T05:16:48.360Z,1004.95
2022-09-11T05:17:48.346Z,1005.01
2022-09-11T05:18:48.337Z,1005.01
2022-09-11T05:19:48.330Z,1004.98
2022-09-11T05:20:48.325Z,1004.96
2022-09-11T05:21:48.297Z,1005.02
2022-09-11T05:22:48.289Z,1005.03
2022-09-11T05:23:48.275Z,1005
2022-09-11T05:24:48.263Z,1005.05
2022-09-11T05:25:48.260Z,1005.17
2022-09-11T05:26:48.247Z,1005.13
2022-09-11T05:27:48.241Z,1005.17
2022-09-11T05:28:48.223Z,1005.19
2022-09-11T05:29:48.210Z,1005.21
2022-09-11T05:30:48.201Z,1005.22
2022-09-11T05:31:48.194Z,1005.28
2022-09-11T05:32:48.182Z,1005.24
2022-09-11T05:33:48.170Z,1005.29
2022-09-11T05:34:48.158Z,1005.27
2022-09-11T05:35:48.143Z,1005.28
2022-09-11T05:36:48.133Z,1005.29
2022-09-11T05:37:48.144Z,1005.35
2022-09-11T05:38:48.120Z,1005.36
2022-09-11T05:39:48.097Z,1005.4
2022-09-11T05:40:48.094Z,1005.38
2022-09-11T05:41:48.077Z,1005.42
2022-09-11T05:42:48.066Z,1005.4
2022-09-11T05:43:48.053Z,1005.39
2022-09-11T05:44:48.050Z,1005.44
2022-09-11T05:45:48.032Z,1005.46
2022-09-11T05:46:48.030Z,1005.47
2022-09-11T05:47:48.007Z,1005.48
2022-09-11T05:48:48.007Z,1005.47
2022-09-11T05:49:47.988Z,1005.48
2022-09-11T05:50:47.982Z,1005.49
2022-09-11T05:51:47.976Z,1005.47
2022-09-11T05:52:47.956Z,1005.52
2022-09-11T05:53:47.949Z,1005.55
2022-09-11T05:54:47.944Z,1005.52
2022-09-11T05:55:47.918Z,1005.58
2022-09-11T05:56:47.910Z,1005.57
2022-09-11T05:57:47.916Z,1005.56
2022-09-11T05:58:47.913Z,1005.56
2022-09-11T05:59:47.882Z,1005.59
2022-09-11T06:00:47.876Z,1005.61
2022-09-11T06:01:47.855Z,1005.61
2022-09-11T06:02:47.842Z,1005.64
2022-09-11T06:03:47.845Z,1005.65
2022-09-11T06:04:47.821Z,1005.71
2022-09-11T06:05:47.816Z,1005.66
2022-09-11T06:06:47.826Z,1005.69
2022-09-11T06:07:47.787Z,1005.7
2022-09-11T06:08:47.781Z,1005.66
2022-09-11T06:09:47.782Z,1005.72
2022-09-11T06:10:47.755Z,1005.76
2022-09-11T06:11:47.746Z,1005.74
2022-09-11T06:12:47.732Z,1005.79
2022-09-11T06:13:47.720Z,1005.78
2022-09-11T06:14:47.711Z,1005.83
2022-09-11T06:15:47.699Z,1005.83
2022-09-11T06:16:47.689Z,1005.81
2022-09-11T06:17:47.696Z,1005.84
2022-09-11T06:18:47.670Z,1005.82
2022-09-11T06:19:47.660Z,1005.83
2022-09-11T06:20:47.651Z,1005.83
2022-09-11T06:21:47.635Z,1005.8
2022-09-11T06:22:47.626Z,1005.81
2022-09-11T06:23:47.611Z,1005.86
2022-09-11T06:24:47.596Z,1005.89
2022-09-11T06:25:47.590Z,1005.86
2022-09-11T06:26:47.585Z,1005.88
2022-09-11T06:27:47.587Z,1005.92
2022-09-11T06:28:47.558Z,1005.92
2022-09-11T06:29:47.551Z,1005.91
2022-09-11T06:30:47.538Z,1005.92
2022-09-11T06:31:47.525Z,1005.83
2022-09-11T06:32:47.522Z,1005.89
2022-09-11T06:33:47.502Z,1005.88
2022-09-11T06:34:47.518Z,1005.89
2022-09-11T06:35:47.476Z,1005.93
2022-09-11T06:36:47.468Z,1005.87
2022-09-11T06:37:47.499Z,1005.93
2022-09-11T06:38:47.454Z,1005.94
2022-09-11T06:39:47.444Z,1005.91
2022-09-11T06:40:47.434Z,1005.9
2022-09-11T06:41:47.412Z,1005.92
2022-09-11T06:42:47.402Z,1005.95
2022-09-11T06:43:47.395Z,1005.92
2022-09-11T06:44:47.386Z,1005.98
2022-09-11T06:45:47.374Z,1005.97
2022-09-11T06:46:47.378Z,1005.99
2022-09-11T06:47:47.353Z,1005.99
2022-09-11T06:48:47.343Z,1006.03
2022-09-11T06:49:47.327Z,1005.97
2022-09-11T06:50:47.328Z,1005.98
2022-09-11T06:51:47.309Z,1005.99
2022-09-11T06:52:47.295Z,1006.01
2022-09-11T06:53:47.283Z,1005.99
2022-09-11T06:54:47.277Z,1005.95
2022-09-11T06:55:47.263Z,1005.98
2022-09-11T06:56:47.257Z,1005.99
2022-09-11T06:57:47.252Z,1005.99
2022-09-11T06:58:47.237Z,1006.06
2022-09-11T06:59:47.223Z,1006.02
2022-09-11T07:00:47.211Z,1005.99
2022-09-11T07:01:47.203Z,1006.06
2022-09-11T07:02:47.196Z,1006.07
2022-09-11T07:03:47.191Z,1006.05
2022-09-11T07:04:47.168Z,1006.09
2022-09-11T07:05:47.159Z,1006.09
2022-09-11T07:06:47.150Z,1006.13
2022-09-11T07:07:47.136Z,1006.09
2022-09-11T07:08:47.126Z,1006.09
2022-09-11T07:09:47.120Z,1006.09
2022-09-11T07:10:47.107Z,1006.08
2022-09-11T07:11:47.105Z,1006.12
2022-09-11T07:12:47.104Z,1006.1
2022-09-11T07:13:47.070Z,1006.09
2022-09-11T07:14:47.062Z,1006.15
2022-09-11T07:15:47.050Z,1006.11
2022-09-11T07:16:47.041Z,1006.14
2022-09-11T07:17:47.034Z,1006.18
2022-09-11T07:18:47.030Z,1006.17
2022-09-11T07:19:47.059Z,1006.19
2022-09-11T07:20:47.007Z,1006.21
2022-09-11T07:21:46.988Z,1006.21
2022-09-11T07:22:46.982Z,1006.26
2022-09-11T07:23:46.970Z,1006.23
2022-09-11T07:24:46.965Z,1006.25
2022-09-11T07:25:46.943Z,1006.19
2022-09-11T07:26:46.931Z,1006.22
2022-09-11T07:27:46.928Z,1006.28
2022-09-11T07:28:46.913Z,1006.26
2022-09-11T07:29:46.910Z,1006.29
2022-09-11T07:30:46.890Z,1006.31
2022-09-11T07:31:46.881Z,1006.31
2022-09-11T07:32:46.887Z,1006.4
2022-09-11T07:33:46.858Z,1006.3
2022-09-11T07:34:46.850Z,1006.33
2022-09-11T07:35:46.838Z,1006.41
2022-09-11T07:36:46.831Z,1006.36
2022-09-11T07:37:46.830Z,1006.35
2022-09-11T07:38:46.822Z,1006.38
2022-09-11T07:39:46.809Z,1006.44
2022-09-11T07:40:46.782Z,1006.39
2022-09-11T07:41:46.791Z,1006.46
2022-09-11T07:42:46.779Z,1006.42
2022-09-11T07:43:46.752Z,1006.45
2022-09-11T07:44:46.741Z,1006.49
2022-09-11T07:45:46.739Z,1006.54
2022-09-11T07:46:46.738Z,1006.52
2022-09-11T07:47:46.708Z,1006.54
2022-09-11T07:48:46.701Z,1006.58
2022-09-11T07:49:46.684Z,1006.55
2022-09-11T07:50:46.678Z,1006.54
2022-09-11T07:51:46.673Z,1006.56
2022-09-11T07:52:46.660Z,1006.55
2022-09-11T07:53:46.645Z,1006.58
2022-09-11T07:54:46.632Z,1006.57
2022-09-11T07:55:46.623Z,1006.58
2022-09-11T07:56:46.613Z,1006.6
2022-09-11T07:57:46.610Z,1006.57
2022-09-11T07:58:46.595Z,1006.58
2022-09-11T07:59:46.615Z,1006.65
2022-09-11T08:00:46.576Z,1006.58
2022-09-11T08:01:46.595Z,1006.65
2022-09-11T08:02:46.555Z,1006.64
2022-09-11T08:03:46.545Z,1006.66
2022-09-11T08:04:46.539Z,1006.62
2022-09-11T08:05:46.518Z,1006.62
2022-09-11T08:06:46.523Z,1006.62
2022-09-11T08:07:46.515Z,1006.68
2022-09-11T08:08:46.486Z,1006.75
2022-09-11T08:09:46.479Z,1006.72
2022-09-11T08:10:46.462Z,1006.77
2022-09-11T08:11:46.450Z,1006.76
2022-09-11T08:12:46.448Z,1006.72
2022-09-11T08:13:46.428Z,1006.76
2022-09-11T08:14:46.420Z,1006.76
2022-09-11T08:15:46.416Z,1006.81
2022-09-11T08:16:46.395Z,1006.76
2022-09-11T08:17:46.389Z,1006.83
2022-09-11T08:18:46.375Z,1006.77
2022-09-11T08:19:46.368Z,1006.87
2022-09-11T08:20:46.358Z,1006.83
2022-09-11T08:21:46.350Z,1006.9
2022-09-11T08:22:46.338Z,1006.85
2022-09-11T08:23:46.325Z,1006.86
2022-09-11T08:24:46.314Z,1006.9
2022-09-11T08:25:46.299Z,1006.89
2022-09-11T08:26:46.288Z,1006.93
2022-09-11T08:27:46.290Z,1006.93
2022-09-11T08:28:46.265Z,1006.9
2022-09-11T08:29:46.260Z,1006.94
2022-09-11T08:30:46.264Z,1006.89
2022-09-11T08:31:46.233Z,1006.94
2022-09-11T08:32:46.227Z,1006.97
2022-09-11T08:33:46.228Z,1006.93
2022-09-11T08:34:46.203Z,1006.99
2022-09-11T08:35:46.191Z,1006.94
2022-09-11T08:36:46.180Z,1006.98
2022-09-11T08:37:46.173Z,1006.95
2022-09-11T08:38:46.162Z,1007.01
2022-09-11T08:39:46.159Z,1007.03
2022-09-11T08:40:46.138Z,1007
2022-09-11T08:41:46.133Z,1007.03
2022-09-11T08:42:46.135Z,1007.03
2022-09-11T08:43:46.106Z,1007.03
2022-09-11T08:44:46.105Z,1007.02
2022-09-11T08:45:46.089Z,1007.01
2022-09-11T08:46:46.109Z,1007.06
2022-09-11T08:47:46.074Z,1007.03
2022-09-11T08:48:46.054Z,1007.13
2022-09-11T08:49:46.050Z,1007.07
2022-09-11T08:50:46.037Z,1007.03
2022-09-11T08:51:46.021Z,1007.11
2022-09-11T08:52:46.020Z,1007.15
2022-09-11T08:53:45.997Z,1007.13
2022-09-11T08:54:45.988Z,1007.11
2022-09-11T08:55:45.979Z,1007.15
2022-09-11T08:56:45.968Z,1007.11
2022-09-11T08:57:45.963Z,1007.11
2022-09-11T08:58:45.944Z,1007.16
2022-09-11T08:59:45.947Z,1007.18
2022-09-11T09:00:45.920Z,1007.16
2022-09-11T09:01:45.913Z,1007.16
2022-09-11T09:02:45.901Z,1007.11
2022-09-11T09:03:45.902Z,1007.16
2022-09-11T09:04:45.895Z,1007.22
2022-09-11T09:05:45.867Z,1007.2
2022-09-11T09:06:45.858Z,1007.21
2022-09-11T09:07:45.865Z,1007.21
2022-09-11T09:08:45.838Z,1007.24
2022-09-11T09:09:45.832Z,1007.21
2022-09-11T09:10:45.840Z,1007.24
2022-09-11T09:11:45.813Z,1007.28
2022-09-11T09:12:45.802Z,1007.32
2022-09-11T09:13:45.782Z,1007.27
2022-09-11T09:14:45.782Z,1007.33
2022-09-11T09:15:45.815Z,1007.25
2022-09-11T09:16:45.753Z,1007.3
2022-09-11T09:17:45.752Z,1007.31
2022-09-11T09:18:45.730Z,1007.28
2022-09-11T09:19:45.718Z,1007.26
2022-09-11T09:20:45.717Z,1007.31
2022-09-11T09:21:45.698Z,1007.23
2022-09-11T09:22:45.696Z,1007.26
2022-09-11T09:23:45.703Z,1007.24
2022-09-11T09:24:45.663Z,1007.31
2022-09-11T09:25:45.652Z,1007.28
2022-09-11T09:26:45.649Z,1007.31
2022-09-11T09:27:45.632Z,1007.26
2022-09-11T09:28:45.624Z,1007.35
2022-09-11T09:29:45.611Z,1007.32
2022-09-11T09:30:45.600Z,1007.31
2022-09-11T09:31:45.592Z,1007.29
2022-09-11T09:32:45.583Z,1007.35
2022-09-11T09:33:45.566Z,1007.36
2022-09-11T09:34:45.558Z,1007.35
2022-09-11T09:35:45.553Z,1007.27
2022-09-11T09:36:45.532Z,1007.29
2022-09-11T09:37:45.529Z,1007.33
2022-09-11T09:38:45.516Z,1007.34
2022-09-11T09:39:45.505Z,1007.32
2022-09-11T09:40:45.492Z,1007.38
2022-09-11T09:41:45.486Z,1007.36
2022-09-11T09:42:45.481Z,1007.4
2022-09-11T09:43:45.457Z,1007.43
2022-09-11T09:44:45.456Z,1007.43
2022-09-11T09:45:45.449Z,1007.35
2022-09-11T09:46:45.431Z,1007.35
2022-09-11T09:47:45.416Z,1007.38
2022-09-11T09:48:45.412Z,1007.34
2022-09-11T09:49:45.400Z,1007.42
2022-09-11T09:50:45.384Z,1007.31
2022-09-11T09:51:45.382Z,1007.33
2022-09-11T09:52:45.363Z,1007.31
2022-09-11T09:53:45.357Z,1007.28
2022-09-11T09:54:45.347Z,1007.21
2022-09-11T09:55:45.330Z,1007.34
2022-09-11T09:56:45.322Z,1007.36
2022-09-11T09:57:45.315Z,1007.32
2022-09-11T09:58:45.300Z,1007.32
2022-09-11T09:59:45.291Z,1007.36
2022-09-11T10:00:45.274Z,1007.33
2022-09-11T10:01:45.271Z,1007.39
2022-09-11T10:02:45.269Z,1007.39
2022-09-11T10:03:45.242Z,1007.43
2022-09-11T10:04:45.235Z,1007.38
2022-09-11T10:05:45.223Z,1007.4
2022-09-11T10:06:45.211Z,1007.43
2022-09-11T10:07:45.205Z,1007.4
2022-09-11T10:08:45.208Z,1007.4
2022-09-11T10:09:45.181Z,1007.42
2022-09-11T10:10:45.166Z,1007.4
2022-09-11T10:11:45.158Z,1007.49
2022-09-11T10:12:45.147Z,1007.45
2022-09-11T10:13:45.154Z,1007.48
2022-09-11T10:14:45.128Z,1007.48
2022-09-11T10:15:45.117Z,1007.51
2022-09-11T10:16:45.109Z,1007.49
2022-09-11T10:17:45.094Z,1007.49
2022-09-11T10:18:45.087Z,1007.47
2022-09-11T10:19:45.084Z,1007.46
2022-09-11T10:20:45.064Z,1007.54
2022-09-11T10:21:45.048Z,1007.48
2022-09-11T10:22:45.053Z,1007.48
2022-09-11T10:23:45.035Z,1007.54
2022-09-11T10:24:45.025Z,1007.49
2022-09-11T10:25:45.007Z,1007.54
2022-09-11T10:26:44.995Z,1007.5
2022-09-11T10:27:44.997Z,1007.5
2022-09-11T10:28:44.979Z,1007.53
2022-09-11T10:29:44.967Z,1007.57
2022-09-11T10:30:44.956Z,1007.58
2022-09-11T10:31:44.948Z,1007.55
2022-09-11T10:32:44.940Z,1007.57
2022-09-11T10:33:44.925Z,1007.56
2022-09-11T10:34:44.910Z,1007.57
2022-09-11T10:35:44.904Z,1007.53
2022-09-11T10:36:44.896Z,1007.56
2022-09-11T10:37:44.882Z,1007.5
2022-09-11T10:38:44.867Z,1007.57
2022-09-11T10:39:44.864Z,1007.57
2022-09-11T10:40:44.856Z,1007.57
2022-09-11T10:41:44.834Z,1007.58
2022-09-11T10:42:44.828Z,1007.56
2022-09-11T10:43:44.830Z,1007.53
2022-09-11T10:44:44.807Z,1007.6
2022-09-11T10:45:44.798Z,1007.58
2022-09-11T10:46:44.792Z,1007.59
2022-09-11T10:47:45.284Z,1007.57
2022-09-11T10:48:44.758Z,1007.59
2022-09-11T10:49:44.754Z,1007.57
2022-09-11T10:50:44.741Z,1007.63
2022-09-11T10:51:44.731Z,1007.57
2022-09-11T10:52:44.719Z,1007.57
2022-09-11T10:53:44.762Z,1007.6
2022-09-11T10:54:44.701Z,1007.67
2022-09-11T10:55:44.689Z,1007.63
2022-09-11T10:56:44.685Z,1007.58
2022-09-11T10:57:44.668Z,1007.62
2022-09-11T10:58:44.653Z,1007.6
2022-09-11T10:59:44.641Z,1007.67
2022-09-11T11:00:44.640Z,1007.64
2022-09-11T11:01:44.691Z,1007.59
2022-09-11T11:02:44.615Z,1007.65
2022-09-11T11:03:44.602Z,1007.57
2022-09-11T11:04:44.598Z,1007.56
2022-09-11T11:05:44.609Z,1007.61
2022-09-11T11:06:44.569Z,1007.56
2022-09-11T11:07:44.557Z,1007.64
2022-09-11T11:08:44.554Z,1007.64
2022-09-11T11:09:44.535Z,1007.6
2022-09-11T11:10:44.528Z,1007.59
2022-09-11T11:11:44.521Z,1007.62
2022-09-11T11:12:44.529Z,1007.66
2022-09-11T11:13:44.494Z,1007.54
2022-09-11T11:14:44.493Z,1007.59
2022-09-11T11:15:44.479Z,1007.61
2022-09-11T11:16:44.459Z,1007.62
2022-09-11T11:17:44.464Z,1007.66
2022-09-11T11:18:44.446Z,1007.56
2022-09-11T11:19:44.434Z,1007.6
2022-09-11T11:20:44.433Z,1007.58
2022-09-11T11:21:44.422Z,1007.6
2022-09-11T11:22:44.419Z,1007.6
2022-09-11T11:23:44.413Z,1007.58
2022-09-11T11:24:44.378Z,1007.68
2022-09-11T11:25:44.370Z,1007.57
2022-09-11T11:26:44.387Z,1007.63
2022-09-11T11:27:44.338Z,1007.62
2022-09-11T11:28:44.348Z,1007.6
2022-09-11T11:29:44.315Z,1007.71
2022-09-11T11:30:44.306Z,1007.71
2022-09-11T11:31:44.290Z,1007.69
2022-09-11T11:32:44.285Z,1007.66
2022-09-11T11:33:44.278Z,1007.72
2022-09-11T11:34:44.267Z,1007.7
2022-09-11T11:35:44.264Z,1007.74
2022-09-11T11:36:44.268Z,1007.7
2022-09-11T11:37:44.229Z,1007.81
2022-09-11T11:38:44.226Z,1007.81
2022-09-11T11:39:44.213Z,1007.73
2022-09-11T11:40:44.203Z,1007.72
2022-09-11T11:41:44.204Z,1007.76
2022-09-11T11:42:44.184Z,1007.76
2022-09-11T11:43:44.170Z,1007.76
2022-09-11T11:44:44.157Z,1007.82
2022-09-11T11:45:44.157Z,1007.81
2022-09-11T11:46:44.142Z,1007.82
2022-09-11T11:47:44.129Z,1007.85
2022-09-11T11:48:44.114Z,1007.84
2022-09-11T11:49:44.112Z,1007.85
2022-09-11T11:50:44.097Z,1007.84
2022-09-11T11:51:44.084Z,1007.84
2022-09-11T11:52:44.077Z,1007.84
2022-09-11T11:53:44.072Z,1007.87
2022-09-11T11:54:44.057Z,1007.86
2022-09-11T11:55:44.051Z,1007.84
2022-09-11T11:56:44.041Z,1007.87
2022-09-11T11:57:44.029Z,1007.88
2022-09-11T11:58:44.012Z,1007.87
2022-09-11T11:59:43.999Z,1007.92
2022-09-11T12:00:43.996Z,1007.82
2022-09-11T12:01:43.983Z,1007.79
2022-09-11T12:02:43.975Z,1007.84
2022-09-11T12:03:43.970Z,1007.85
2022-09-11T12:04:43.957Z,1007.79
2022-09-11T12:05:43.937Z,1007.78
2022-09-11T12:06:43.928Z,1007.82
2022-09-11T12:07:43.911Z,1007.81
2022-09-11T12:08:43.903Z,1007.81